No particular awareness of the weather is required.    There are no Weather-warnings


Meteo18 Weather Cam more information Meteo18 Weather Cam


Thunder radar more information blitzortung!


Rain radar more information rain snow radar


Visit our other weather sites:

Template documentation
and downloads

And another site



Weather Underground History page Text

Daily Summary for January 29, 2017 Units:  English    Metric   Both
« Previous Day
Next Day »
Daily Weekly Monthly Yearly Custom
  High: Low: Average:
Temperature: TemperatureC °F -0.6 °F 4.2 °F
Dew Point: DewpointC °F -1.0 °F 3 °F
Humidity: Humidity % 79 % 92 %
Wind Speed: WindSpeedKMH mph 0.0 mph 1.7 mph
Wind Gust: WindSpeedGustKMH mph - -
Wind:- - South
Pressure: PressurehPa in 1018.8 in -
Precipitation: 0.3 in    
Historical Graphs
 
 
Tabular Data for January 29, 2017
Time Temperature Dew Point Pressure Wind Wind Speed Wind Gust Humidity Rainfall Rate (Hourly)
TemperatureC °F DewpointC °F PressurehPa in Calm     Humidity % HourlyPrecipMM in
00:02 -0.4 °F -0.8 °F 1021.9 in Calm   1.6 mph 97 % 0.0 in
00:07 -0.5 °F -0.9 °F 1021.9 in Calm   1.6 mph 97 % 0.0 in
00:12 -0.6 °F -1.0 °F 1021.9 in Calm   1.6 mph 97 % 0.0 in
00:17 -0.6 °F -1.0 °F 1021.9 in Calm     97 % 0.0 in
00:22 -0.3 °F -0.7 °F 1021.9 in Calm     97 % 0.0 in
00:32 -0.2 °F -0.6 °F 1021.9 in Calm     97 % 0.0 in
00:37 -0.3 °F -0.7 °F 1021.9 in Calm     97 % 0.0 in
00:42 -0.4 °F -0.8 °F 1021.9 in Calm     97 % 0.0 in
00:52 -0.4 °F -0.8 °F 1021.9 in Calm     97 % 0.0 in
00:57 -0.2 °F -0.6 °F 1021.9 in Calm     97 % 0.0 in
01:02 -0.3 °F -0.7 °F 1021.9 in Calm     97 % 0.0 in
01:12 -0.2 °F -0.6 °F 1021.9 in Calm     97 % 0.0 in
01:17 -0.2 °F -0.6 °F 1021.9 in Calm     97 % 0.0 in
01:22 0.1 °F -0.2 °F 1021.6 in Calm     98 % 0.0 in
01:27 0.2 °F -0.1 °F 1021.6 in Calm     98 % 0.0 in
01:32 0.4 °F 0.1 °F 1021.6 in Calm     98 % 0.0 in
01:37 0.4 °F 0.1 °F 1021.6 in Calm     98 % 0.0 in
01:42 0.4 °F 0.1 °F 1021.6 in Calm     98 % 0.0 in
01:47 0.3 °F 0.0 °F 1021.6 in Calm     98 % 0.0 in
01:52 0.3 °F 0.0 °F 1021.6 in Calm     98 % 0.0 in
01:57 0.3 °F 0.0 °F 1021.6 in Calm     98 % 0.0 in
02:02 0.3 °F 0.0 °F 1021.6 in Calm     98 % 0.0 in
02:12 0.3 °F 0.0 °F 1021.6 in Calm     98 % 0.0 in
02:17 0.3 °F 0.0 °F 1021.6 in Calm     98 % 0.0 in
02:22 0.3 °F 0.0 °F 1021.6 in Calm     98 % 0.0 in
02:27 0.3 °F 0.0 °F 1021.6 in Calm     98 % 0.0 in
02:32 0.3 °F -0.1 °F 1021.6 in Calm     97 % 0.0 in
02:37 0.3 °F 0.0 °F 1021.6 in Calm     98 % 0.0 in
02:42 0.4 °F 0.1 °F 1021.6 in Calm     98 % 0.0 in
02:47 0.4 °F 0.1 °F 1021.6 in Calm     98 % 0.0 in
02:52 0.6 °F 0.3 °F 1021.6 in Calm     98 % 0.0 in
02:57 0.4 °F 0.1 °F 1021.6 in Calm     98 % 0.0 in
03:02 0.3 °F 0.0 °F 1021.6 in Calm     98 % 0.0 in
03:12 0.2 °F -0.2 °F 1021.6 in Calm     97 % 0.0 in
03:17 0.1 °F -0.3 °F 1021.6 in Calm     97 % 0.0 in
03:22 0.1 °F -0.3 °F 1021.6 in Calm     97 % 0.0 in
03:27 0.2 °F -0.2 °F 1021.6 in Calm     97 % 0.0 in
03:32 0.4 °F 0.1 °F 1021.6 in Calm     98 % 0.0 in
03:37 0.3 °F 0.0 °F 1021.6 in Calm     98 % 0.0 in
03:47 0.4 °F 0.1 °F 1021.6 in Calm     98 % 0.0 in
03:52 0.8 °F 0.5 °F 1021.6 in Calm     98 % 0.0 in
03:57 1.0 °F 0.7 °F 1021.6 in Calm   1.6 mph 98 % 0.0 in
04:07 1.0 °F 0.7 °F 1021.6 in Calm   1.6 mph 98 % 0.0 in
04:12 1.1 °F 0.8 °F 1021.6 in Calm   1.6 mph 98 % 0.0 in
04:17 1.2 °F 0.9 °F 1021.6 in Calm   1.6 mph 98 % 0.0 in
04:22 1.1 °F 0.8 °F 1021.9 in Calm   1.6 mph 98 % 0.0 in
04:32 1.1 °F 0.8 °F 1021.6 in Calm   1.6 mph 98 % 0.0 in
04:37 1.4 °F 1.1 °F 1021.6 in Calm   1.6 mph 98 % 0.0 in
04:42 1.5 °F 1.2 °F 1021.6 in Calm     98 % 0.0 in
04:47 1.6 °F 1.3 °F 1021.6 in Calm     98 % 0.0 in
04:52 1.6 °F 1.3 °F 1021.6 in Calm     98 % 0.0 in
04:57 1.5 °F 1.2 °F 1021.6 in Calm     98 % 0.0 in
05:02 1.6 °F 1.3 °F 1021.6 in Calm     98 % 0.0 in
05:07 1.7 °F 1.4 °F 1021.6 in Calm     98 % 0.0 in
05:12 1.9 °F 1.6 °F 1021.6 in Calm     98 % 0.0 in
05:17 2.1 °F 1.8 °F 1021.9 in Calm     98 % 0.0 in
05:22 2.1 °F 1.8 °F 1021.9 in Calm     98 % 0.3 in
05:27 2.2 °F 1.9 °F 1021.9 in Calm     98 % 0.3 in
05:32 2.2 °F 1.9 °F 1021.9 in SSW 1.6 mph 1.6 mph 98 % 0.3 in
05:37 2.2 °F 1.9 °F 1021.9 in Calm   1.6 mph 98 % 0.3 in
05:42 2.2 °F 1.9 °F 1021.9 in Calm   1.6 mph 98 % 0.3 in
05:47 2.1 °F 1.8 °F 1021.9 in Calm   1.6 mph 98 % 0.3 in
05:52 2.1 °F 1.8 °F 1021.9 in Calm   1.6 mph 98 % 0.3 in
05:57 2.1 °F 1.8 °F 1021.9 in Calm   1.6 mph 98 % 0.3 in
06:02 2.1 °F 1.8 °F 1021.9 in Calm     98 % 0.3 in
06:12 2.1 °F 1.8 °F 1022.2 in Calm     98 % 0.3 in
06:17 2.1 °F 1.8 °F 1022.2 in Calm     98 % 0.3 in
06:22 2.2 °F 1.9 °F 1022.2 in Calm   1.6 mph 98 % 0.0 in
06:32 2.3 °F 2.0 °F 1022.2 in Calm   1.6 mph 98 % 0.0 in
06:37 2.2 °F 1.9 °F 1022.2 in Calm     98 % 0.0 in
06:42 2.2 °F 1.9 °F 1022.2 in Calm     98 % 0.0 in
06:47 2.2 °F 1.9 °F 1022.2 in Calm     98 % 0.0 in
06:52 2.1 °F 1.8 °F 1022.6 in Calm     98 % 0.0 in
07:02 2.1 °F 1.8 °F 1022.6 in Calm     98 % 0.0 in
07:07 2.2 °F 1.9 °F 1022.6 in Calm     98 % 0.0 in
07:17 2.3 °F 2.0 °F 1022.6 in Calm     98 % 0.0 in
07:22 2.4 °F 2.1 °F 1022.6 in Calm   1.6 mph 98 % 0.0 in
07:27 2.4 °F 2.1 °F 1022.6 in Calm   1.6 mph 98 % 0.0 in
07:32 2.4 °F 2.1 °F 1022.9 in Calm   3.2 mph 98 % 0.0 in
07:42 2.3 °F 2.0 °F 1022.9 in Calm   1.6 mph 98 % 0.0 in
07:47 2.3 °F 2.0 °F 1022.9 in Calm   1.6 mph 98 % 0.0 in
07:52 2.3 °F 2.0 °F 1022.9 in Calm   1.6 mph 98 % 0.0 in
07:57 2.4 °F 2.1 °F 1022.9 in Calm   1.6 mph 98 % 0.0 in
08:02 2.5 °F 2.2 °F 1022.9 in Calm   1.6 mph 98 % 0.0 in
08:07 2.5 °F 2.2 °F 1022.9 in Calm   1.6 mph 98 % 0.0 in
08:12 2.5 °F 2.2 °F 1022.9 in Calm     98 % 0.0 in
08:17 2.5 °F 2.2 °F 1022.9 in Calm     98 % 0.0 in
08:22 2.5 °F 2.2 °F 1023.2 in Calm     98 % 0.0 in
08:32 2.4 °F 2.1 °F 1023.2 in Calm     98 % 0.0 in
08:37 2.4 °F 2.1 °F 1023.2 in Calm     98 % 0.0 in
08:42 2.5 °F 2.2 °F 1023.2 in Calm     98 % 0.0 in
08:47 2.5 °F 2.2 °F 1023.2 in Calm     98 % 0.0 in
08:52 2.5 °F 2.2 °F 1023.2 in Calm     98 % 0.0 in
08:57 2.4 °F 2.1 °F 1023.2 in Calm     98 % 0.0 in
09:02 2.6 °F 2.3 °F 1023.2 in Calm     98 % 0.0 in
09:07 2.6 °F 2.3 °F 1023.2 in Calm     98 % 0.0 in
09:12 2.7 °F 2.4 °F 1023.2 in Calm     98 % 0.0 in
09:17 2.8 °F 2.5 °F 1023.2 in Calm     98 % 0.0 in
09:22 3.0 °F 2.7 °F 1023.2 in Calm     98 % 0.0 in
09:27 3.1 °F 2.8 °F 1023.2 in Calm     98 % 0.0 in
09:32 2.9 °F 2.6 °F 1023.2 in Calm     98 % 0.0 in
09:37 2.9 °F 2.6 °F 1023.2 in Calm     98 % 0.0 in
09:42 3.1 °F 2.8 °F 1023.2 in Calm     98 % 0.0 in
09:47 3.1 °F 2.8 °F 1023.2 in Calm     98 % 0.0 in
09:52 3.2 °F 2.9 °F 1023.2 in Calm     98 % 0.0 in
09:57 3.2 °F 2.9 °F 1023.2 in SSE 1.6 mph   98 % 0.0 in
10:02 3.1 °F 2.8 °F 1023.2 in SE 3.2 mph 3.2 mph 98 % 0.0 in
10:07 3.1 °F 2.8 °F 1023.2 in Calm   3.2 mph 98 % 0.0 in
10:12 3.1 °F 2.8 °F 1023.2 in SE 1.6 mph 4.8 mph 98 % 0.0 in
10:17 3.2 °F 2.9 °F 1023.2 in SE 1.6 mph 4.8 mph 98 % 0.0 in
10:22 3.3 °F 3.0 °F 1023.2 in SE 1.6 mph 4.8 mph 98 % 0.0 in
10:32 3.4 °F 3.1 °F 1023.2 in South 1.6 mph 4.8 mph 98 % 0.0 in
10:37 3.5 °F 3.2 °F 1023.2 in ESE 1.6 mph 4.8 mph 98 % 0.0 in
10:42 3.6 °F 3.3 °F 1023.2 in Calm   4.8 mph 98 % 0.0 in
10:47 3.6 °F 3.3 °F 1023.2 in SE 1.6 mph 4.8 mph 98 % 0.0 in
10:52 3.7 °F 3.4 °F 1023.2 in Calm   3.2 mph 98 % 0.0 in
10:57 3.7 °F 3.4 °F 1023.2 in Calm   3.2 mph 98 % 0.0 in
11:02 3.8 °F 3.5 °F 1023.2 in SE 1.6 mph 3.2 mph 98 % 0.0 in
11:07 3.9 °F 3.6 °F 1023.2 in SSE 3.2 mph 3.2 mph 98 % 0.0 in
11:12 4.0 °F 3.7 °F 1023.2 in SE 1.6 mph 3.2 mph 98 % 0.0 in
11:17 4.1 °F 3.8 °F 1022.9 in SE 3.2 mph 3.2 mph 98 % 0.0 in
11:22 4.1 °F 3.8 °F 1022.9 in SE 1.6 mph 4.8 mph 98 % 0.0 in
11:32 4.4 °F 4.1 °F 1022.9 in SSE 1.6 mph 6.4 mph 98 % 0.0 in
11:37 4.6 °F 4.3 °F 1022.9 in Calm   6.4 mph 98 % 0.0 in
11:42 4.8 °F 4.5 °F 1022.9 in SE 3.2 mph 6.4 mph 98 % 0.0 in
11:47 5.0 °F 4.7 °F 1022.9 in SSE 4.8 mph 6.4 mph 98 % 0.0 in
11:52 5.2 °F 4.9 °F 1022.9 in South 6.4 mph 6.4 mph 98 % 0.0 in
11:57 5.3 °F 5.0 °F 1022.9 in South 1.6 mph 6.4 mph 98 % 0.0 in
12:02 5.5 °F 5.2 °F 1022.9 in SE 1.6 mph 8.0 mph 98 % 0.0 in
12:07 5.6 °F 5.3 °F 1022.6 in SE 1.6 mph 8.0 mph 98 % 0.0 in
12:12 5.8 °F 5.4 °F 1022.6 in Calm   8.0 mph 97 % 0.0 in
12:17 5.8 °F 5.4 °F 1022.6 in SSE 1.6 mph 6.4 mph 97 % 0.0 in
12:22 5.9 °F 5.5 °F 1022.6 in SE 3.2 mph 6.4 mph 97 % 0.0 in
12:32 6.1 °F 5.5 °F 1022.6 in SW 6.4 mph 6.4 mph 96 % 0.0 in
12:37 6.2 °F 5.5 °F 1022.6 in SSW 6.4 mph 9.7 mph 95 % 0.0 in
12:42 6.4 °F 5.7 °F 1022.2 in SSW 6.4 mph 9.7 mph 95 % 0.0 in
12:47 6.4 °F 5.4 °F 1022.2 in SW 6.4 mph 14.5 mph 93 % 0.0 in
12:57 6.9 °F 5.7 °F 1022.2 in SW 9.7 mph 14.5 mph 92 % 0.0 in
13:02 7.4 °F 6.2 °F 1022.2 in South 9.7 mph 14.5 mph 92 % 0.0 in
13:12 7.8 °F 6.3 °F 1021.9 in SSW 9.7 mph 14.5 mph 90 % 0.0 in
13:17 8.0 °F 6.3 °F 1021.9 in SW 9.7 mph 17.7 mph 89 % 0.0 in
13:22 8.0 °F 6.1 °F 1021.9 in SW 4.8 mph 17.7 mph 88 % 0.0 in
13:27 8.0 °F 6.1 °F 1021.9 in SSW 4.8 mph 17.7 mph 88 % 0.0 in
13:32 8.1 °F 6.4 °F 1021.9 in SSW 8.0 mph 16.1 mph 89 % 0.0 in
13:37 8.2 °F 6.0 °F 1021.9 in WSW 11.3 mph 12.9 mph 86 % 0.0 in
13:42 8.3 °F 6.4 °F 1021.6 in South 3.2 mph 12.9 mph 88 % 0.0 in
13:47 8.3 °F 6.1 °F 1021.6 in SW 9.7 mph 16.1 mph 86 % 0.0 in
13:52 8.4 °F 6.4 °F 1021.6 in South 6.4 mph 16.1 mph 87 % 0.0 in
13:57 8.5 °F 6.1 °F 1021.6 in SW 11.3 mph 16.1 mph 85 % 0.0 in
14:02 8.4 °F 6.2 °F 1021.2 in SW 9.7 mph 16.1 mph 86 % 0.0 in
14:12 8.8 °F 6.6 °F 1021.2 in South 4.8 mph 16.1 mph 86 % 0.0 in
14:17 8.6 °F 5.7 °F 1020.9 in SSW 9.7 mph 14.5 mph 82 % 0.0 in
14:22 8.6 °F 6.0 °F 1020.9 in South 3.2 mph 14.5 mph 84 % 0.0 in
14:27 8.6 °F 6.2 °F 1020.9 in SSE 4.8 mph 14.5 mph 85 % 0.0 in
14:32 8.7 °F 6.1 °F 1020.9 in South 6.4 mph 14.5 mph 84 % 0.0 in
14:37 8.7 °F 6.3 °F 1020.9 in South 3.2 mph 9.7 mph 85 % 0.0 in
14:42 8.7 °F 6.0 °F 1020.9 in Calm   9.7 mph 83 % 0.0 in
14:47 8.8 °F 6.2 °F 1020.9 in SSE 6.4 mph 9.7 mph 84 % 0.0 in
14:52 8.9 °F 5.6 °F 1020.5 in SW 4.8 mph 12.9 mph 80 % 0.0 in
14:57 9.1 °F 6.2 °F 1020.5 in South 3.2 mph 12.9 mph 82 % 0.0 in
15:02 9.2 °F 6.1 °F 1020.5 in SSE 8.0 mph 14.5 mph 81 % 0.0 in
15:12 9.2 °F 6.3 °F 1020.5 in SSE 1.6 mph 14.5 mph 82 % 0.0 in
15:17 9.2 °F 5.7 °F 1020.5 in SSE 9.7 mph 12.9 mph 79 % 0.0 in
15:22 9.2 °F 5.7 °F 1020.5 in SW 9.7 mph 12.9 mph 79 % 0.0 in
15:27 9.3 °F 5.8 °F 1020.5 in SSW 6.4 mph 14.5 mph 79 % 0.0 in
15:32 9.4 °F 6.1 °F 1020.5 in South 4.8 mph 14.5 mph 80 % 0.0 in
15:37 9.3 °F 6.0 °F 1020.5 in South 6.4 mph 16.1 mph 80 % 0.0 in
15:42 9.3 °F 6.2 °F 1020.5 in West 3.2 mph 16.1 mph 81 % 0.0 in
15:47 9.1 °F 5.8 °F 1020.2 in SSE 4.8 mph 16.1 mph 80 % 0.0 in
15:52 9.0 °F 5.7 °F 1020.2 in SSE 3.2 mph 16.1 mph 80 % 0.0 in
15:57 8.9 °F 5.8 °F 1020.5 in South 3.2 mph 14.5 mph 81 % 0.0 in
16:02 8.9 °F 5.8 °F 1020.5 in South 1.6 mph 14.5 mph 81 % 0.0 in
16:12 8.8 °F 5.5 °F 1020.2 in South 3.2 mph 9.7 mph 80 % 0.0 in
16:17 8.9 °F 5.8 °F 1020.2 in SSW 3.2 mph 9.7 mph 81 % 0.0 in
16:22 8.9 °F 5.8 °F 1020.2 in SE 4.8 mph 9.7 mph 81 % 0.0 in
16:27 8.9 °F 5.8 °F 1020.2 in SSE 3.2 mph 9.7 mph 81 % 0.0 in
16:32 9.0 °F 5.7 °F 1020.2 in South 1.6 mph 9.7 mph 80 % 0.0 in
16:37 9.2 °F 5.9 °F 1020.5 in South 4.8 mph 9.7 mph 80 % 0.0 in
16:42 9.2 °F 5.9 °F 1020.5 in SSE 3.2 mph 8.0 mph 80 % 0.0 in
16:47 9.1 °F 5.8 °F 1020.5 in South 4.8 mph 8.0 mph 80 % 0.0 in
16:57 8.7 °F 5.6 °F 1020.2 in SW 4.8 mph 9.7 mph 81 % 0.0 in
17:02 8.5 °F 5.4 °F 1020.2 in South 4.8 mph 9.7 mph 81 % 0.0 in
17:12 8.2 °F 5.3 °F 1020.2 in South 1.6 mph 9.7 mph 82 % 0.0 in
17:17 8.0 °F 5.1 °F 1020.2 in South 1.6 mph 8.0 mph 82 % 0.0 in
17:22 7.9 °F 5.0 °F 1020.2 in South 4.8 mph 8.0 mph 82 % 0.0 in
17:27 7.8 °F 4.9 °F 1020.2 in SSE 3.2 mph 8.0 mph 82 % 0.0 in
17:32 7.8 °F 4.9 °F 1020.2 in ESE 3.2 mph 8.0 mph 82 % 0.0 in
17:37 7.7 °F 4.8 °F 1020.2 in SSE 3.2 mph 6.4 mph 82 % 0.0 in
17:42 7.6 °F 4.9 °F 1020.2 in Calm   6.4 mph 83 % 0.0 in
17:47 7.4 °F 4.7 °F 1019.9 in SE 1.6 mph 6.4 mph 83 % 0.0 in
17:52 7.3 °F 4.6 °F 1019.9 in ESE 1.6 mph 6.4 mph 83 % 0.0 in
17:57 7.1 °F 4.4 °F 1020.2 in Calm   6.4 mph 83 % 0.0 in
18:02 6.9 °F 4.4 °F 1020.2 in Calm   4.8 mph 84 % 0.0 in
18:12 6.6 °F 4.1 °F 1020.2 in Calm   3.2 mph 84 % 0.0 in
18:17 6.3 °F 4.0 °F 1020.2 in Calm   3.2 mph 85 % 0.0 in
18:22 6.1 °F 3.8 °F 1020.2 in SSE 1.6 mph 3.2 mph 85 % 0.0 in
18:32 5.5 °F 3.3 °F 1020.2 in SSW 1.6 mph 1.6 mph 86 % 0.0 in
18:42 5.2 °F 3.2 °F 1020.2 in Calm   3.2 mph 87 % 0.0 in
18:52 5.1 °F 3.3 °F 1020.2 in SSW 1.6 mph 4.8 mph 88 % 0.0 in
18:57 5.1 °F 3.3 °F 1020.2 in Calm   4.8 mph 88 % 0.0 in
19:02 5.2 °F 3.4 °F 1020.2 in Calm   3.2 mph 88 % 0.0 in
19:12 5.1 °F 3.3 °F 1019.9 in Calm   3.2 mph 88 % 0.0 in
19:17 5.1 °F 3.3 °F 1019.9 in Calm   1.6 mph 88 % 0.0 in
19:22 5.0 °F 3.2 °F 1019.9 in Calm   1.6 mph 88 % 0.0 in
19:27 4.9 °F 3.2 °F 1019.9 in SW 1.6 mph   89 % 0.0 in
19:32 4.9 °F 3.2 °F 1019.9 in South 1.6 mph   89 % 0.0 in
19:42 4.9 °F 3.4 °F 1020.2 in SSW 1.6 mph 1.6 mph 90 % 0.0 in
19:47 5.1 °F 3.6 °F 1019.9 in SSW 1.6 mph 3.2 mph 90 % 0.0 in
19:52 5.1 °F 3.4 °F 1019.9 in South 1.6 mph 3.2 mph 89 % 0.0 in
19:57 5.0 °F 3.3 °F 1019.9 in Calm   3.2 mph 89 % 0.0 in
20:02 5.0 °F 3.5 °F 1019.9 in SSW 1.6 mph 3.2 mph 90 % 0.0 in
20:12 5.1 °F 3.4 °F 1019.9 in SW 1.6 mph 4.8 mph 89 % 0.0 in
20:17 5.2 °F 3.5 °F 1020.2 in SW 4.8 mph 6.4 mph 89 % 0.0 in
20:22 5.3 °F 3.6 °F 1019.9 in SW 3.2 mph 8.0 mph 89 % 0.0 in
20:27 5.3 °F 3.5 °F 1019.9 in South 4.8 mph 8.0 mph 88 % 0.0 in
20:32 5.2 °F 3.4 °F 1019.9 in SSW 3.2 mph 8.0 mph 88 % 0.0 in
20:37 5.2 °F 3.4 °F 1019.9 in SSW 4.8 mph 8.0 mph 88 % 0.0 in
20:42 5.1 °F 3.3 °F 1019.9 in SSW 3.2 mph 6.4 mph 88 % 0.0 in
20:47 5.1 °F 3.3 °F 1019.9 in SSW 1.6 mph 6.4 mph 88 % 0.0 in
20:52 5.2 °F 3.4 °F 1019.9 in SSW 1.6 mph 4.8 mph 88 % 0.0 in
20:57 5.2 °F 3.4 °F 1019.9 in Calm   6.4 mph 88 % 0.0 in
21:02 5.2 °F 3.4 °F 1019.9 in Calm   6.4 mph 88 % 0.0 in
21:07 5.3 °F 3.3 °F 1019.9 in SSW 1.6 mph 4.8 mph 87 % 0.0 in
21:12 5.4 °F 3.4 °F 1019.9 in SSW 1.6 mph 4.8 mph 87 % 0.0 in
21:17 5.4 °F 3.4 °F 1019.9 in Calm   3.2 mph 87 % 0.0 in
21:22 5.4 °F 3.4 °F 1019.9 in SW 1.6 mph 3.2 mph 87 % 0.0 in
21:32 5.3 °F 3.3 °F 1019.9 in SSW 1.6 mph 3.2 mph 87 % 0.0 in
21:37 5.3 °F 3.3 °F 1019.9 in Calm   3.2 mph 87 % 0.0 in
21:42 5.2 °F 3.2 °F 1019.9 in South 1.6 mph 3.2 mph 87 % 0.0 in
21:47 5.2 °F 3.2 °F 1019.9 in Calm   3.2 mph 87 % 0.0 in
21:52 5.2 °F 3.2 °F 1019.9 in SE 1.6 mph 3.2 mph 87 % 0.0 in
21:57 5.1 °F 3.1 °F 1019.9 in SE 1.6 mph 3.2 mph 87 % 0.0 in
22:02 5.1 °F 3.3 °F 1019.5 in Calm   3.2 mph 88 % 0.0 in
22:12 4.9 °F 3.1 °F 1019.5 in SSW 1.6 mph 3.2 mph 88 % 0.0 in
22:17 4.7 °F 2.9 °F 1019.5 in SSW 3.2 mph 3.2 mph 88 % 0.0 in
22:22 4.7 °F 3.0 °F 1019.5 in South 3.2 mph 3.2 mph 89 % 0.0 in
22:27 4.7 °F 2.9 °F 1019.5 in SSW 1.6 mph 3.2 mph 88 % 0.0 in
22:32 4.8 °F 3.1 °F 1019.5 in SSW 3.2 mph 3.2 mph 89 % 0.0 in
22:37 4.8 °F 3.0 °F 1019.5 in SSW 1.6 mph 4.8 mph 88 % 0.0 in
22:42 4.9 °F 3.1 °F 1019.5 in SE 3.2 mph 6.4 mph 88 % 0.0 in
22:47 4.9 °F 3.1 °F 1019.5 in SSW 3.2 mph 6.4 mph 88 % 0.0 in
22:52 4.9 °F 3.1 °F 1019.5 in Calm   4.8 mph 88 % 0.0 in
22:57 4.9 °F 3.1 °F 1019.5 in South 1.6 mph 4.8 mph 88 % 0.0 in
23:02 5.1 °F 3.1 °F 1019.5 in SSW 1.6 mph 4.8 mph 87 % 0.0 in
23:07 5.0 °F 3.0 °F 1019.5 in SSW 1.6 mph 3.2 mph 87 % 0.0 in
23:12 4.9 °F 3.1 °F 1019.5 in Calm   3.2 mph 88 % 0.0 in
23:17 4.9 °F 3.1 °F 1019.5 in South 1.6 mph 3.2 mph 88 % 0.0 in
23:22 4.9 °F 3.1 °F 1019.2 in Calm   3.2 mph 88 % 0.0 in
23:27 4.9 °F 3.1 °F 1019.2 in SSW 1.6 mph 4.8 mph 88 % 0.0 in
23:32 4.7 °F 2.9 °F 1019.2 in SSW 1.6 mph 4.8 mph 88 % 0.0 in
23:37 4.6 °F 2.9 °F 1019.2 in SSE 3.2 mph 4.8 mph 89 % 0.0 in
23:42 4.7 °F 3.0 °F 1019.2 in Calm   4.8 mph 89 % 0.0 in
23:47 4.7 °F 2.9 °F 1019.2 in SSE 1.6 mph 3.2 mph 88 % 0.0 in
23:52 4.7 °F 2.9 °F 1018.8 in SE 1.6 mph 4.8 mph 88 % 0.0 in
23:57 4.7 °F 2.9 °F 1018.8 in Calm   4.8 mph 88 % 0.0 in
Meteo18
Compliments of Weather Underground - 4 mb

Script developed by  Jim McMurry - jmcmurry@mwt.net Adapted for the template by  Wim van der Kuil - Leuven-Template.eu

You find our weather info also at:

European Weather Network

Weather Underground

Equipment we use:

Weather-station
Davis Vue

Weather-program
Meteobridge

Weather-server
Raspberry PI 2 B+

Provider
1 and 1

Davis Vue

Meteobridge

Raspberry PI 2 B+

1 and 1